createdAt,value
2022-10-01T00:00:56.248Z,100046.69
2022-10-01T00:03:25.194Z,100047.13
2022-10-01T00:05:58.850Z,100040.47
2022-10-01T00:08:25.152Z,100031.00
2022-10-01T00:10:51.603Z,100019.88
2022-10-01T00:13:19.404Z,100020.97
2022-10-01T00:15:46.142Z,100016.00
2022-10-01T00:18:12.622Z,100024.75
2022-10-01T00:20:39.468Z,100023.13
2022-10-01T00:23:05.983Z,100014.19
2022-10-01T00:25:32.431Z,100017.59
2022-10-01T00:27:58.936Z,100024.31
2022-10-01T00:30:26.795Z,100012.97
2022-10-01T00:32:53.445Z,100010.59
2022-10-01T00:35:19.926Z,100006.63
2022-10-01T00:37:47.270Z,100004.13
2022-10-01T00:40:13.750Z,99999.13
2022-10-01T00:42:40.137Z,99998.13
2022-10-01T00:45:07.263Z,99991.56
2022-10-01T00:47:38.438Z,99992.34
2022-10-01T00:50:09.665Z,99979.50
2022-10-01T00:52:40.539Z,99982.59
2022-10-01T00:55:10.462Z,99977.97
2022-10-01T00:57:37.295Z,99977.69
2022-10-01T01:00:06.525Z,99975.25
2022-10-01T01:02:33.189Z,99967.72
2022-10-01T01:05:01.258Z,99968.22
2022-10-01T01:07:29.210Z,99960.84
2022-10-01T01:09:55.946Z,99962.84
2022-10-01T01:12:44.589Z,99953.59
2022-10-01T01:15:17.260Z,99946.97
2022-10-01T01:17:52.744Z,99942.69
2022-10-01T01:20:40.130Z,99938.13
2022-10-01T01:23:25.674Z,99939.38
2022-10-01T01:26:02.244Z,99936.66
2022-10-01T01:28:32.466Z,99943.63
2022-10-01T01:31:04.581Z,99933.31
2022-10-01T01:33:34.756Z,99933.47
2022-10-01T01:36:05.871Z,99917.44
2022-10-01T01:38:36.321Z,99918.13
2022-10-01T01:41:04.949Z,99920.59
2022-10-01T01:43:36.856Z,99908.22
2022-10-01T01:46:05.974Z,99903.31
2022-10-01T01:48:34.917Z,99900.88
2022-10-01T01:51:08.527Z,99897.22
2022-10-01T01:53:35.461Z,99893.22
2022-10-01T01:56:02.083Z,99896.91
2022-10-01T01:58:29.029Z,99880.28
2022-10-01T02:00:56.766Z,99877.13
2022-10-01T02:03:26.572Z,99881.22
2022-10-01T02:06:03.548Z,99877.50
2022-10-01T02:08:38.897Z,99877.22
2022-10-01T02:11:25.550Z,99867.88
2022-10-01T02:14:03.660Z,99869.06
2022-10-01T02:16:41.517Z,99856.09
2022-10-01T02:19:17.892Z,99853.31
2022-10-01T02:21:53.022Z,99850.53
2022-10-01T02:24:27.493Z,99849.91
2022-10-01T02:26:55.732Z,99850.38
2022-10-01T02:29:23.706Z,99843.03
2022-10-01T02:31:54.075Z,99845.56
2022-10-01T02:34:24.641Z,99843.50
2022-10-01T02:36:52.557Z,99838.25
2022-10-01T02:39:22.022Z,99835.00
2022-10-01T02:41:51.453Z,99818.41
2022-10-01T02:44:23.684Z,99822.81
2022-10-01T02:46:57.259Z,99825.91
2022-10-01T02:49:27.433Z,99822.56
2022-10-01T02:52:07.978Z,99813.25
2022-10-01T02:54:38.272Z,99807.28
2022-10-01T02:57:04.692Z,99801.13
2022-10-01T02:59:31.175Z,99791.53
2022-10-01T03:01:59.112Z,99786.59
2022-10-01T03:04:25.706Z,99793.56
2022-10-01T03:06:52.154Z,99783.78
2022-10-01T03:09:18.564Z,99780.50
2022-10-01T03:11:44.963Z,99779.59
2022-10-01T03:14:11.408Z,99776.84
2022-10-01T03:16:37.977Z,99778.75
2022-10-01T03:19:05.753Z,99768.91
2022-10-01T03:21:32.473Z,99761.75
2022-10-01T03:23:59.089Z,99761.38
2022-10-01T03:26:25.503Z,99762.50
2022-10-01T03:28:52.028Z,99757.06
2022-10-01T03:31:18.497Z,99764.34
2022-10-01T03:33:45.042Z,99757.41
2022-10-01T03:36:12.842Z,99756.94
2022-10-01T03:38:39.320Z,99759.22
2022-10-01T03:41:06.355Z,99765.19
2022-10-01T03:43:32.781Z,99752.13
2022-10-01T03:45:59.286Z,99734.09
2022-10-01T03:48:25.791Z,99744.75
2022-10-01T03:50:53.708Z,99724.28
2022-10-01T03:53:21.873Z,99719.88
2022-10-01T03:55:48.296Z,99717.03
2022-10-01T03:58:14.802Z,99717.03
2022-10-01T04:00:41.215Z,99722.97
2022-10-01T04:03:07.729Z,99715.75
2022-10-01T04:05:34.335Z,99719.25
2022-10-01T04:08:01.173Z,99707.97
2022-10-01T04:10:29.067Z,99709.16
2022-10-01T04:12:55.464Z,99712.09
2022-10-01T04:15:22.030Z,99693.31
2022-10-01T04:17:48.640Z,99691.81
2022-10-01T04:20:15.287Z,99694.03
2022-10-01T04:22:42.511Z,99687.00
2022-10-01T04:25:10.761Z,99683.97
2022-10-01T04:27:38.634Z,99681.88
2022-10-01T04:30:07.009Z,99671.56
2022-10-01T04:32:33.532Z,99670.63
2022-10-01T04:35:00.033Z,99664.13
2022-10-01T04:37:26.488Z,99659.59
2022-10-01T04:39:53.007Z,99659.97
2022-10-01T04:42:19.760Z,99657.94
2022-10-01T04:44:47.988Z,99649.06
2022-10-01T04:47:14.673Z,99650.59
2022-10-01T04:49:41.076Z,99645.09
2022-10-01T04:52:07.687Z,99635.00
2022-10-01T04:54:34.074Z,99634.53
2022-10-01T04:57:00.491Z,99630.25
2022-10-01T04:59:26.906Z,99629.09
2022-10-01T05:01:57.185Z,99614.34
2022-10-01T05:04:23.798Z,99607.16
2022-10-01T05:06:50.275Z,99609.34
2022-10-01T05:09:16.695Z,99610.59
2022-10-01T05:11:43.143Z,99612.44
2022-10-01T05:14:11.141Z,99597.88
2022-10-01T05:16:37.683Z,99599.53
2022-10-01T05:19:05.632Z,99593.13
2022-10-01T05:21:32.431Z,99593.69
2022-10-01T05:23:59.275Z,99589.78
2022-10-01T05:26:25.691Z,99593.06
2022-10-01T05:28:52.134Z,99587.47
2022-10-01T05:31:18.551Z,99585.13
2022-10-01T05:33:45.036Z,99582.72
2022-10-01T05:36:12.828Z,99579.19
2022-10-01T05:38:39.322Z,99580.81
2022-10-01T05:41:06.217Z,99576.81
2022-10-01T05:43:32.658Z,99578.25
2022-10-01T05:46:00.664Z,99574.66
2022-10-01T05:48:27.167Z,99567.81
2022-10-01T05:50:53.772Z,99565.47
2022-10-01T05:53:21.550Z,99557.75
2022-10-01T05:55:47.990Z,99553.84
2022-10-01T05:58:14.469Z,99548.41
2022-10-01T06:00:42.255Z,99543.16
2022-10-01T06:03:11.125Z,99540.59
2022-10-01T06:05:37.783Z,99539.50
2022-10-01T06:08:05.769Z,99542.38
2022-10-01T06:10:33.615Z,99531.44
2022-10-01T06:13:00.647Z,99523.97
2022-10-01T06:15:27.566Z,99528.81
2022-10-01T06:17:54.003Z,99531.28
2022-10-01T06:20:20.522Z,99526.22
2022-10-01T06:22:54.306Z,99520.03
2022-10-01T06:25:20.593Z,99517.78
2022-10-01T06:27:52.575Z,99516.50
2022-10-01T06:30:19.094Z,99511.13
2022-10-01T06:32:45.513Z,99513.38
2022-10-01T06:35:11.929Z,99492.38
2022-10-01T06:37:38.551Z,99486.88
2022-10-01T06:40:06.292Z,99497.78
2022-10-01T06:42:33.088Z,99490.00
2022-10-01T06:45:00.796Z,99487.97
2022-10-01T06:47:27.239Z,99486.78
2022-10-01T06:49:53.784Z,99484.94
2022-10-01T06:52:20.216Z,99483.69
2022-10-01T06:54:46.627Z,99485.34
2022-10-01T06:57:13.105Z,99470.81
2022-10-01T06:59:39.535Z,99471.84
2022-10-01T07:02:11.070Z,99476.44
2022-10-01T07:04:37.720Z,99480.44
2022-10-01T07:07:04.138Z,99471.25
2022-10-01T07:09:30.534Z,99483.56
2022-10-01T07:11:56.963Z,99474.38
2022-10-01T07:14:23.512Z,99473.63
2022-10-01T07:16:49.949Z,99475.56
2022-10-01T07:19:17.951Z,99465.84
2022-10-01T07:21:47.384Z,99472.13
2022-10-01T07:24:13.819Z,99464.94
2022-10-01T07:26:40.267Z,99477.16
2022-10-01T07:29:06.673Z,99466.16
2022-10-01T07:31:33.407Z,99469.88
2022-10-01T07:34:00.069Z,99468.47
2022-10-01T07:36:27.880Z,99466.75
2022-10-01T07:38:54.359Z,99470.94
2022-10-01T07:41:20.756Z,99457.25
2022-10-01T07:43:47.225Z,99467.38
2022-10-01T07:46:13.699Z,99475.66
2022-10-01T07:48:40.221Z,99473.63
2022-10-01T07:51:06.898Z,99471.25
2022-10-01T07:53:34.639Z,99470.22
2022-10-01T07:56:01.500Z,99475.25
2022-10-01T07:58:27.961Z,99476.34
2022-10-01T08:00:54.386Z,99475.59
2022-10-01T08:03:21.017Z,99472.09
2022-10-01T08:05:47.406Z,99473.03
2022-10-01T08:08:13.783Z,99479.56
2022-10-01T08:10:41.581Z,99475.53
2022-10-01T08:13:11.192Z,99480.78
2022-10-01T08:15:37.611Z,99484.25
2022-10-01T08:18:04.839Z,99481.59
2022-10-01T08:20:45.628Z,99478.94
2022-10-01T08:23:14.378Z,99485.84
2022-10-01T08:25:43.255Z,99476.22
2022-10-01T08:28:11.170Z,99485.53
2022-10-01T08:30:39.744Z,99479.13
2022-10-01T08:33:07.246Z,99482.47
2022-10-01T08:35:33.732Z,99471.38
2022-10-01T08:38:04.515Z,99481.03
2022-10-01T08:40:33.197Z,99480.41
2022-10-01T08:43:04.057Z,99489.03
2022-10-01T08:45:37.632Z,99490.84
2022-10-01T08:48:05.742Z,99492.78
2022-10-01T08:50:40.752Z,99484.28
2022-10-01T08:53:14.112Z,99491.81
2022-10-01T08:55:41.165Z,99491.31
2022-10-01T08:58:14.624Z,99491.94
2022-10-01T09:00:45.127Z,99483.81
2022-10-01T09:03:13.608Z,99487.97
2022-10-01T09:05:55.511Z,99485.13
2022-10-01T09:08:32.579Z,99488.69
2022-10-01T09:11:04.438Z,99498.34
2022-10-01T09:13:53.757Z,99506.91
2022-10-01T09:16:25.232Z,99505.56
2022-10-01T09:19:03.796Z,99503.06
2022-10-01T09:21:46.469Z,99515.44
2022-10-01T09:24:14.804Z,99498.53
2022-10-01T09:26:45.767Z,99507.97
2022-10-01T09:29:17.556Z,99508.09
2022-10-01T09:31:48.724Z,99504.63
2022-10-01T09:34:16.568Z,99493.06
2022-10-01T09:36:56.289Z,99494.50
2022-10-01T09:39:29.656Z,99482.50
2022-10-01T09:41:56.110Z,99501.59
2022-10-01T09:44:27.725Z,99496.50
2022-10-01T09:46:54.834Z,99506.78
2022-10-01T09:49:29.281Z,99494.56
2022-10-01T09:52:01.158Z,99496.91
2022-10-01T09:54:32.404Z,99510.50
2022-10-01T09:57:05.817Z,99510.31
2022-10-01T09:59:38.425Z,99512.84
2022-10-01T10:02:15.014Z,99517.16
2022-10-01T10:04:41.581Z,99512.34
2022-10-01T10:07:08.183Z,99513.66
2022-10-01T10:09:35.956Z,99509.59
2022-10-01T10:12:03.020Z,99507.44
2022-10-01T10:14:31.917Z,99513.50
2022-10-01T10:17:05.227Z,99514.06
2022-10-01T10:19:32.361Z,99526.50
2022-10-01T10:22:11.424Z,99521.81
2022-10-01T10:24:38.144Z,99524.22
2022-10-01T10:27:18.013Z,99532.41
2022-10-01T10:29:44.438Z,99539.31
2022-10-01T10:32:19.054Z,99538.28
2022-10-01T10:34:45.976Z,99533.97
2022-10-01T10:37:15.572Z,99543.50
2022-10-01T10:39:46.318Z,99546.13
2022-10-01T10:42:13.828Z,99546.06
2022-10-01T10:44:43.686Z,99548.25
2022-10-01T10:47:13.532Z,99543.38
2022-10-01T10:49:44.803Z,99562.19
2022-10-01T10:52:20.047Z,99553.84
2022-10-01T10:54:48.211Z,99553.97
2022-10-01T10:57:19.089Z,99549.44
2022-10-01T10:59:55.527Z,99543.66
2022-10-01T11:02:24.712Z,99558.44
2022-10-01T11:04:53.239Z,99561.63
2022-10-01T11:07:21.433Z,99553.84
2022-10-01T11:10:09.010Z,99554.22
2022-10-01T11:12:55.531Z,99566.09
2022-10-01T11:15:38.570Z,99564.06
2022-10-01T11:18:22.412Z,99566.72
2022-10-01T11:20:52.455Z,99561.78
2022-10-01T11:23:40.496Z,99557.06
2022-10-01T11:26:15.803Z,99553.63
2022-10-01T11:28:55.703Z,99555.78
2022-10-01T11:31:31.543Z,99566.69
2022-10-01T11:34:16.168Z,99564.19
2022-10-01T11:36:55.487Z,99561.84
2022-10-01T11:39:25.250Z,99564.84
2022-10-01T11:41:56.067Z,99565.34
2022-10-01T11:44:29.266Z,99574.84
2022-10-01T11:47:00.665Z,99576.34
2022-10-01T11:49:45.711Z,99572.44
2022-10-01T11:52:20.369Z,99571.16
2022-10-01T11:54:58.519Z,99557.19
2022-10-01T11:57:26.877Z,99562.69
2022-10-01T11:59:58.963Z,99554.19
2022-10-01T12:02:31.322Z,99556.53
2022-10-01T12:05:03.940Z,99570.38
2022-10-01T12:07:37.280Z,99569.66
2022-10-01T12:10:17.854Z,99566.25
2022-10-01T12:12:51.534Z,99565.75
2022-10-01T12:15:19.562Z,99571.44
2022-10-01T12:17:51.307Z,99565.97
2022-10-01T12:20:24.758Z,99572.59
2022-10-01T12:22:53.637Z,99573.38
2022-10-01T12:25:26.239Z,99560.66
2022-10-01T12:28:00.098Z,99571.28
2022-10-01T12:30:31.374Z,99571.13
2022-10-01T12:33:09.275Z,99566.31
2022-10-01T12:35:54.522Z,99575.38
2022-10-01T12:38:32.445Z,99568.25
2022-10-01T12:41:09.296Z,99575.97
2022-10-01T12:44:00.169Z,99576.13
2022-10-01T12:46:34.976Z,99580.06
2022-10-01T12:49:14.144Z,99577.69
2022-10-01T12:51:44.480Z,99571.97
2022-10-01T12:54:29.957Z,99576.03
2022-10-01T12:57:02.880Z,99577.56
2022-10-01T12:59:40.406Z,99579.06
2022-10-01T13:02:23.068Z,99575.41
2022-10-01T13:05:12.740Z,99571.69
2022-10-01T13:07:51.236Z,99572.03
2022-10-01T13:10:34.791Z,99579.53
2022-10-01T13:13:05.430Z,99582.59
2022-10-01T13:15:35.636Z,99562.56
2022-10-01T13:18:13.032Z,99578.47
2022-10-01T13:20:46.949Z,99572.63
2022-10-01T13:23:23.805Z,99574.69
2022-10-01T13:26:01.593Z,99581.88
2022-10-01T13:28:49.544Z,99580.28
2022-10-01T13:31:17.340Z,99586.22
2022-10-01T13:33:53.771Z,99581.03
2022-10-01T13:36:29.143Z,99588.91
2022-10-01T13:38:57.001Z,99593.78
2022-10-01T13:41:27.640Z,99586.16
2022-10-01T13:43:57.104Z,99593.66
2022-10-01T13:46:26.657Z,99586.19
2022-10-01T13:48:53.566Z,99587.94
2022-10-01T13:51:20.126Z,99605.41
2022-10-01T13:53:49.567Z,99597.84
2022-10-01T13:56:28.982Z,99591.84
2022-10-01T13:58:55.827Z,99590.00
2022-10-01T14:01:29.104Z,99584.56
2022-10-01T14:04:01.982Z,99582.25
2022-10-01T14:06:30.705Z,99705.94
2022-10-01T14:09:05.267Z,99706.03
2022-10-01T14:11:35.844Z,99700.59
2022-10-01T14:14:09.801Z,99708.34
2022-10-01T14:16:40.181Z,99704.47
2022-10-01T14:19:08.053Z,99699.28
2022-10-01T14:21:55.226Z,99718.72
2022-10-01T14:24:32.607Z,99709.16
2022-10-01T14:27:10.719Z,99720.03
2022-10-01T14:29:49.320Z,99724.47
2022-10-01T14:32:26.782Z,99735.22
2022-10-01T14:35:11.343Z,99739.88
2022-10-01T14:37:38.694Z,99741.66
2022-10-01T14:40:15.300Z,99751.69
2022-10-01T14:42:43.135Z,99743.41
2022-10-01T14:45:17.603Z,99753.16
2022-10-01T14:47:44.054Z,99749.59
2022-10-01T14:50:12.260Z,99751.63
2022-10-01T14:52:44.156Z,99741.19
2022-10-01T14:55:13.980Z,99744.50
2022-10-01T14:57:45.151Z,99740.72
2022-10-01T15:00:16.367Z,99740.81
2022-10-01T15:02:47.564Z,99736.06
2022-10-01T15:05:23.471Z,99747.44
2022-10-01T15:07:50.424Z,99743.97
2022-10-01T15:10:18.890Z,99742.78
2022-10-01T15:12:49.420Z,99739.22
2022-10-01T15:15:19.134Z,99737.34
2022-10-01T15:17:46.438Z,99743.28
2022-10-01T15:20:13.373Z,99751.06
2022-10-01T15:22:40.455Z,99752.22
2022-10-01T15:25:07.508Z,99746.06
2022-10-01T15:27:34.067Z,99746.19
2022-10-01T15:30:02.036Z,99754.56
2022-10-01T15:32:28.864Z,99757.09
2022-10-01T15:34:57.689Z,99766.19
2022-10-01T15:37:29.572Z,99769.22
2022-10-01T15:39:56.936Z,99769.44
2022-10-01T15:42:25.873Z,99757.72
2022-10-01T15:45:20.531Z,99776.06
2022-10-01T15:47:48.898Z,99778.16
2022-10-01T15:50:20.948Z,99782.94
2022-10-01T15:52:53.152Z,99797.06
2022-10-01T15:55:23.599Z,99803.50
2022-10-01T15:57:55.483Z,99813.66
2022-10-01T16:00:25.707Z,99811.72
2022-10-01T16:02:53.400Z,99814.13
2022-10-01T16:05:22.762Z,99816.31
2022-10-01T16:07:53.556Z,99827.59
2022-10-01T16:10:34.018Z,99832.06
2022-10-01T16:13:28.074Z,99835.50
2022-10-01T16:16:07.148Z,99837.91
2022-10-01T16:18:33.682Z,99842.31
2022-10-01T16:21:00.289Z,99850.81
2022-10-01T16:23:34.352Z,99858.41
2022-10-01T16:26:01.678Z,99863.84
2022-10-01T16:28:32.314Z,99868.34
2022-10-01T16:30:59.438Z,99868.97
2022-10-01T16:33:25.874Z,99874.91
2022-10-01T16:36:06.771Z,99874.59
2022-10-01T16:38:33.200Z,99881.66
2022-10-01T16:40:59.738Z,99879.25
2022-10-01T16:43:26.340Z,99887.13
2022-10-01T16:45:54.163Z,99900.75
2022-10-01T16:48:21.613Z,99907.03
2022-10-01T16:50:48.348Z,99909.69
2022-10-01T16:53:17.012Z,99918.88
2022-10-01T16:55:44.296Z,99927.97
2022-10-01T16:58:11.308Z,99936.00
2022-10-01T17:00:37.799Z,99941.88
2022-10-01T17:03:07.260Z,99936.13
2022-10-01T17:05:35.964Z,99953.91
2022-10-01T17:08:03.570Z,99942.84
2022-10-01T17:10:31.867Z,99947.19
2022-10-01T17:12:58.899Z,99952.28
2022-10-01T17:15:27.463Z,99961.50
2022-10-01T17:17:54.687Z,99960.50
2022-10-01T17:20:24.232Z,99963.56
2022-10-01T17:22:51.155Z,99974.50
2022-10-01T17:25:20.248Z,99971.13
2022-10-01T17:27:47.159Z,99974.50
2022-10-01T17:30:13.859Z,99978.22
2022-10-01T17:32:40.856Z,99991.75
2022-10-01T17:35:07.777Z,99988.00
2022-10-01T17:37:35.699Z,99990.00
2022-10-01T17:40:02.717Z,100004.44
2022-10-01T17:42:30.521Z,99994.25
2022-10-01T17:44:56.976Z,100006.59
2022-10-01T17:47:23.637Z,100011.25
2022-10-01T17:49:50.081Z,100011.59
2022-10-01T17:52:17.326Z,100014.63
2022-10-01T17:54:45.359Z,100017.00
2022-10-01T17:57:12.562Z,100023.25
2022-10-01T17:59:39.353Z,100030.47
2022-10-01T18:02:23.583Z,100037.78
2022-10-01T18:04:53.477Z,100033.63
2022-10-01T18:07:19.913Z,100042.94
2022-10-01T18:09:47.637Z,100054.25
2022-10-01T18:12:14.553Z,100059.31
2022-10-01T18:14:40.981Z,100066.53
2022-10-01T18:17:07.697Z,100065.81
2022-10-01T18:22:20.809Z,100077.31
2022-10-01T18:24:48.851Z,100093.53
2022-10-01T18:27:15.308Z,100096.75
2022-10-01T18:29:41.784Z,100098.06
2022-10-01T18:32:15.721Z,100096.75
2022-10-01T18:34:47.271Z,100105.06
2022-10-01T18:37:24.433Z,100102.00
2022-10-01T18:39:58.865Z,100105.47
2022-10-01T18:42:31.245Z,100115.44
2022-10-01T18:45:01.159Z,100112.50
2022-10-01T18:47:39.016Z,100119.84
2022-10-01T18:50:32.060Z,100131.66
2022-10-01T18:53:15.142Z,100128.63
2022-10-01T18:56:02.973Z,100143.50
2022-10-01T18:58:45.608Z,100153.97
2022-10-01T19:01:24.319Z,100153.44
2022-10-01T19:04:03.136Z,100152.03
2022-10-01T19:06:46.991Z,100159.94
2022-10-01T19:09:32.007Z,100167.88
2022-10-01T19:12:14.474Z,100174.34
2022-10-01T19:14:50.068Z,100175.44
2022-10-01T19:17:31.770Z,100189.09
2022-10-01T19:20:09.885Z,100181.66
2022-10-01T19:22:58.374Z,100189.19
2022-10-01T19:25:30.758Z,100194.09
2022-10-01T19:28:10.585Z,100198.50
2022-10-01T19:30:50.559Z,100195.69
2022-10-01T19:33:20.873Z,100203.41
2022-10-01T19:35:51.323Z,100202.13
2022-10-01T19:38:24.883Z,100206.31
2022-10-01T19:40:55.684Z,100207.91
2022-10-01T19:43:29.441Z,100219.38
2022-10-01T19:46:00.922Z,100218.38
2022-10-01T19:48:35.238Z,100220.63
2022-10-01T19:51:07.632Z,100224.03
2022-10-01T19:53:35.556Z,100223.19
2022-10-01T19:56:03.043Z,100226.59
2022-10-01T19:58:32.475Z,100231.72
2022-10-01T20:01:01.619Z,100220.63
2022-10-01T20:03:36.387Z,100232.91
2022-10-01T20:06:05.761Z,100238.34
2022-10-01T20:08:35.194Z,100246.50
2022-10-01T20:11:10.679Z,100244.59
2022-10-01T20:13:55.106Z,100248.59
2022-10-01T20:16:25.965Z,100247.84
2022-10-01T20:19:00.615Z,100258.09
2022-10-01T20:21:41.365Z,100264.88
2022-10-01T20:24:19.600Z,100264.00
2022-10-01T20:26:50.772Z,100271.06
2022-10-01T20:29:32.189Z,100271.09
2022-10-01T20:32:07.069Z,100270.75
2022-10-01T20:34:43.318Z,100282.13
2022-10-01T20:37:24.680Z,100280.19
2022-10-01T20:39:55.772Z,100290.00
2022-10-01T20:42:30.440Z,100290.94
2022-10-01T20:44:58.179Z,100295.75
2022-10-01T20:47:31.159Z,100300.06
2022-10-01T20:50:06.863Z,100309.03
2022-10-01T20:52:44.685Z,100312.28
2022-10-01T20:55:15.436Z,100315.16
2022-10-01T20:57:46.858Z,100317.94
2022-10-01T21:00:18.184Z,100319.22
2022-10-01T21:02:49.743Z,100322.78
2022-10-01T21:05:20.456Z,100333.59
2022-10-01T21:07:52.451Z,100325.19
2022-10-01T21:10:27.943Z,100331.72
2022-10-01T21:13:01.516Z,100332.72
2022-10-01T21:15:38.889Z,100336.66
2022-10-01T21:18:11.536Z,100346.56
2022-10-01T21:20:48.834Z,100337.47
2022-10-01T21:23:31.151Z,100344.63
2022-10-01T21:26:11.576Z,100345.50
2022-10-01T21:28:55.906Z,100348.63
2022-10-01T21:31:38.823Z,100355.47
2022-10-01T21:34:12.474Z,100351.56
2022-10-01T21:36:55.719Z,100343.84
2022-10-01T21:39:31.092Z,100360.06
2022-10-01T21:42:10.596Z,100358.06
2022-10-01T21:45:05.346Z,100366.63
2022-10-01T21:47:49.455Z,100369.88
2022-10-01T21:50:25.659Z,100378.41
2022-10-01T21:53:09.012Z,100374.34
2022-10-01T21:55:53.008Z,100382.03
2022-10-01T21:58:25.346Z,100374.81
2022-10-01T22:00:58.829Z,100377.25
2022-10-01T22:03:34.059Z,100376.16
2022-10-01T22:06:07.425Z,100377.22
2022-10-01T22:08:51.007Z,100377.94
2022-10-01T22:11:19.875Z,100387.78
2022-10-01T22:13:51.335Z,100377.28
2022-10-01T22:16:19.899Z,100383.81
2022-10-01T22:18:51.694Z,100393.81
2022-10-01T22:21:24.704Z,100393.84
2022-10-01T22:23:56.121Z,100400.03
2022-10-01T22:26:27.425Z,100402.97
2022-10-01T22:28:55.404Z,100389.06
2022-10-01T22:31:27.359Z,100402.66
2022-10-01T22:34:01.422Z,100406.25
2022-10-01T22:36:33.680Z,100399.06
2022-10-01T22:39:04.971Z,100403.31
2022-10-01T22:41:35.630Z,100414.59
2022-10-01T22:44:06.322Z,100410.16
2022-10-01T22:47:00.724Z,100414.28
2022-10-01T22:49:39.926Z,100412.00
2022-10-01T22:52:20.968Z,100422.97
2022-10-01T22:54:56.483Z,100421.31
2022-10-01T22:57:40.899Z,100425.63
2022-10-01T23:00:09.548Z,100422.84
2022-10-01T23:02:40.106Z,100438.56
2022-10-01T23:05:32.445Z,100432.03
2022-10-01T23:08:09.442Z,100427.28
2022-10-01T23:10:45.507Z,100431.50
2022-10-01T23:13:21.103Z,100426.78
2022-10-01T23:15:55.917Z,100431.19
2022-10-01T23:18:36.119Z,100431.84
2022-10-01T23:21:21.000Z,100429.41
2022-10-01T23:23:58.493Z,100436.13
2022-10-01T23:26:35.141Z,100429.41
2022-10-01T23:29:17.058Z,100431.53
2022-10-01T23:31:53.880Z,100433.28
2022-10-01T23:34:29.127Z,100435.09
2022-10-01T23:37:13.005Z,100430.88
2022-10-01T23:39:52.002Z,100436.94
2022-10-01T23:42:33.495Z,100440.00
2022-10-01T23:45:12.607Z,100438.41
2022-10-01T23:47:45.438Z,100446.47
2022-10-01T23:50:21.368Z,100451.19
2022-10-01T23:52:57.334Z,100454.34
2022-10-01T23:55:32.465Z,100457.78
2022-10-01T23:58:03.402Z,100471.06
